JST975 YSSY-YSTW
Flight info
| Callsign | JST975 |
|---|---|
| Flight time | 0h 41m |
| Altitude | 27000 |
| Route | OLSEM H252 UPNEX/N0369F260 H140 MATLA/N0339F200 V258 TW |
| Aircraft | A20N/M-SDE2E3FGHIRWXY/LB1 |
Departure
| Time | 2026-04-24 04:22 |
|---|---|
| Airport | Sydney Kingsford Smith International Airport (YSSY) |
Arrival
| Time | 2026-04-24 05:03 |
|---|---|
| Airport | Tamworth Airport (YSTW) |
| Time | Latitude | Longitude | Altitude | Speed | Heading |
|---|---|---|---|---|---|
| 2026-04-24 03:51 | -33.93556 | 151.18002 | 30 ft | 0 kts | 278° |
| 2026-04-24 04:00 | -33.93556 | 151.18003 | 30 ft | 0 kts | 278° |
| 2026-04-24 04:10 | -33.93556 | 151.18004 | 30 ft | 2 kts | 278° |
| 2026-04-24 04:10 | -33.93558 | 151.18024 | 30 ft | 2 kts | 274° |
| 2026-04-24 04:11 | -33.93552 | 151.18062 | 30 ft | 2 kts | 207° |
| 2026-04-24 04:11 | -33.93541 | 151.18067 | 30 ft | 1 kts | 192° |
| 2026-04-24 04:11 | -33.93540 | 151.18067 | 30 ft | 0 kts | 192° |
| 2026-04-24 04:15 | -33.93567 | 151.18062 | 30 ft | 12 kts | 190° |
| 2026-04-24 04:15 | -33.93683 | 151.18059 | 30 ft | 15 kts | 170° |
| 2026-04-24 04:15 | -33.93775 | 151.18044 | 30 ft | 14 kts | 238° |
| 2026-04-24 04:15 | -33.93809 | 151.17917 | 26 ft | 19 kts | 253° |
| 2026-04-24 04:16 | -33.93858 | 151.17785 | 22 ft | 16 kts | 210° |
| 2026-04-24 04:16 | -33.93964 | 151.17797 | 23 ft | 16 kts | 170° |
| 2026-04-24 04:16 | -33.94096 | 151.17830 | 25 ft | 23 kts | 167° |
| 2026-04-24 04:16 | -33.94269 | 151.17877 | 26 ft | 28 kts | 167° |
| 2026-04-24 04:17 | -33.94471 | 151.17899 | 25 ft | 30 kts | 200° |
| 2026-04-24 04:17 | -33.94658 | 151.17920 | 25 ft | 24 kts | 167° |
| 2026-04-24 04:17 | -33.94830 | 151.17963 | 21 ft | 26 kts | 168° |
| 2026-04-24 04:17 | -33.95003 | 151.18006 | 28 ft | 24 kts | 167° |
| 2026-04-24 04:18 | -33.95101 | 151.18088 | 27 ft | 17 kts | 97° |
| 2026-04-24 04:18 | -33.95079 | 151.18244 | 26 ft | 20 kts | 78° |
| 2026-04-24 04:18 | -33.95048 | 151.18413 | 29 ft | 19 kts | 79° |
| 2026-04-24 04:18 | -33.95025 | 151.18549 | 26 ft | 8 kts | 79° |
| 2026-04-24 04:19 | -33.95015 | 151.18599 | 28 ft | 10 kts | 79° |
| 2026-04-24 04:19 | -33.95004 | 151.18660 | 27 ft | 5 kts | 78° |
| 2026-04-24 04:19 | -33.95003 | 151.18666 | 25 ft | 0 kts | 78° |
| 2026-04-24 04:19 | -33.95002 | 151.18668 | 27 ft | 2 kts | 78° |
| 2026-04-24 04:20 | -33.94995 | 151.18713 | 24 ft | 0 kts | 78° |
| 2026-04-24 04:20 | -33.94994 | 151.18717 | 24 ft | 6 kts | 78° |
| 2026-04-24 04:20 | -33.94999 | 151.18820 | 24 ft | 16 kts | 115° |
| 2026-04-24 04:21 | -33.95094 | 151.18866 | 25 ft | 16 kts | 165° |
| 2026-04-24 04:21 | -33.95260 | 151.18911 | 20 ft | 51 kts | 168° |
| 2026-04-24 04:21 | -33.95826 | 151.19057 | 28 ft | 112 kts | 168° |
| 2026-04-24 04:21 | -33.96740 | 151.19290 | 163 ft | 145 kts | 167° |
| 2026-04-24 04:22 | -33.97633 | 151.19778 | 840 ft | 141 kts | 137° |
| 2026-04-24 04:22 | -33.98289 | 151.20655 | 1463 ft | 140 kts | 127° |
| 2026-04-24 04:22 | -33.98860 | 151.21619 | 2023 ft | 150 kts | 126° |
| 2026-04-24 04:22 | -33.99526 | 151.22702 | 2514 ft | 171 kts | 128° |
| 2026-04-24 04:23 | -34.00312 | 151.23892 | 3067 ft | 193 kts | 129° |
| 2026-04-24 04:23 | -34.01308 | 151.25127 | 3577 ft | 218 kts | 140° |
| 2026-04-24 04:23 | -34.02549 | 151.26322 | 4210 ft | 238 kts | 140° |
| 2026-04-24 04:23 | -34.03898 | 151.27620 | 4900 ft | 256 kts | 140° |
| 2026-04-24 04:24 | -34.05304 | 151.28976 | 5843 ft | 262 kts | 140° |
| 2026-04-24 04:24 | -34.06744 | 151.30370 | 6781 ft | 268 kts | 139° |
| 2026-04-24 04:24 | -34.08203 | 151.31792 | 7758 ft | 270 kts | 139° |
| 2026-04-24 04:24 | -34.09670 | 151.33228 | 8737 ft | 273 kts | 139° |
| 2026-04-24 04:25 | -34.10975 | 151.34885 | 9695 ft | 275 kts | 121° |
| 2026-04-24 04:25 | -34.11632 | 151.37054 | 10591 ft | 280 kts | 97° |
| 2026-04-24 04:25 | -34.11460 | 151.39400 | 11452 ft | 286 kts | 73° |
| 2026-04-24 04:25 | -34.10456 | 151.41489 | 12295 ft | 294 kts | 51° |
| 2026-04-24 04:26 | -34.09047 | 151.43368 | 12828 ft | 312 kts | 50° |
| 2026-04-24 04:26 | -34.07535 | 151.45300 | 13551 ft | 320 kts | 45° |
| 2026-04-24 04:26 | -34.05712 | 151.46890 | 14392 ft | 328 kts | 30° |
| 2026-04-24 04:26 | -34.03564 | 151.47892 | 15137 ft | 335 kts | 17° |
| 2026-04-24 04:27 | -34.01255 | 151.48625 | 15523 ft | 354 kts | 17° |
| 2026-04-24 04:27 | -33.98811 | 151.49411 | 15856 ft | 370 kts | 17° |
| 2026-04-24 04:27 | -33.96306 | 151.50223 | 16563 ft | 375 kts | 17° |
| 2026-04-24 04:27 | -33.93775 | 151.51047 | 17280 ft | 379 kts | 18° |
| 2026-04-24 04:28 | -33.91212 | 151.51884 | 17976 ft | 384 kts | 18° |
| 2026-04-24 04:28 | -33.88656 | 151.52720 | 18678 ft | 388 kts | 18° |
| 2026-04-24 04:28 | -33.86032 | 151.53578 | 19288 ft | 392 kts | 18° |
| 2026-04-24 04:28 | -33.83382 | 151.54444 | 19880 ft | 397 kts | 18° |
| 2026-04-24 04:29 | -33.80704 | 151.55318 | 20495 ft | 401 kts | 18° |
| 2026-04-24 04:29 | -33.78001 | 151.56200 | 21091 ft | 405 kts | 18° |
| 2026-04-24 04:29 | -33.75267 | 151.57091 | 21674 ft | 409 kts | 18° |
| 2026-04-24 04:29 | -33.72507 | 151.57991 | 22238 ft | 414 kts | 18° |
| 2026-04-24 04:30 | -33.69715 | 151.58899 | 22836 ft | 417 kts | 18° |
| 2026-04-24 04:30 | -33.66889 | 151.59819 | 23401 ft | 422 kts | 18° |
| 2026-04-24 04:30 | -33.64040 | 151.60744 | 23968 ft | 426 kts | 17° |
| 2026-04-24 04:30 | -33.61155 | 151.61643 | 24451 ft | 430 kts | 17° |
| 2026-04-24 04:31 | -33.58246 | 151.62519 | 24973 ft | 432 kts | 16° |
| 2026-04-24 04:31 | -33.55317 | 151.63396 | 25469 ft | 435 kts | 16° |
| 2026-04-24 04:31 | -33.52374 | 151.64281 | 25950 ft | 438 kts | 16° |
| 2026-04-24 04:31 | -33.49406 | 151.65177 | 26405 ft | 441 kts | 17° |
| 2026-04-24 04:32 | -33.46400 | 151.65985 | 26870 ft | 445 kts | 11° |
| 2026-04-24 04:32 | -33.43301 | 151.66301 | 27316 ft | 450 kts | 2° |
| 2026-04-24 04:32 | -33.40197 | 151.66060 | 27742 ft | 455 kts | 353° |
| 2026-04-24 04:32 | -33.37061 | 151.65429 | 28154 ft | 458 kts | 351° |
| 2026-04-24 04:33 | -33.33907 | 151.64784 | 28409 ft | 461 kts | 351° |
| 2026-04-24 04:33 | -33.30747 | 151.64146 | 28452 ft | 461 kts | 352° |
| 2026-04-24 04:33 | -33.24426 | 151.62882 | 28447 ft | 461 kts | 352° |
| 2026-04-24 04:34 | -33.18098 | 151.61622 | 28445 ft | 461 kts | 352° |
| 2026-04-24 04:34 | -33.11769 | 151.60364 | 28443 ft | 461 kts | 352° |
| 2026-04-24 04:35 | -33.05437 | 151.59106 | 28447 ft | 461 kts | 352° |
| 2026-04-24 04:35 | -32.99101 | 151.57850 | 28445 ft | 462 kts | 352° |
| 2026-04-24 04:36 | -32.92770 | 151.56597 | 28445 ft | 462 kts | 352° |
| 2026-04-24 04:36 | -32.87498 | 151.55555 | 28443 ft | 462 kts | 352° |
| 2026-04-24 04:37 | -32.80116 | 151.54097 | 28443 ft | 463 kts | 352° |
| 2026-04-24 04:37 | -32.73824 | 151.52497 | 28439 ft | 464 kts | 342° |
| 2026-04-24 04:38 | -32.68727 | 151.50332 | 28433 ft | 464 kts | 341° |
| 2026-04-24 04:38 | -32.62689 | 151.47771 | 28428 ft | 464 kts | 341° |
| 2026-04-24 04:39 | -32.56597 | 151.45199 | 28421 ft | 464 kts | 341° |
| 2026-04-24 04:39 | -32.50516 | 151.42637 | 28419 ft | 464 kts | 341° |
| 2026-04-24 04:40 | -32.44426 | 151.40074 | 28417 ft | 464 kts | 341° |
| 2026-04-24 04:40 | -32.38335 | 151.37515 | 28416 ft | 464 kts | 341° |
| 2026-04-24 04:41 | -32.32247 | 151.34960 | 28414 ft | 465 kts | 341° |
| 2026-04-24 04:41 | -32.29210 | 151.33687 | 28183 ft | 460 kts | 341° |
| 2026-04-24 04:41 | -32.26190 | 151.32421 | 27237 ft | 461 kts | 341° |
| 2026-04-24 04:42 | -32.23151 | 151.31149 | 26048 ft | 466 kts | 341° |
| 2026-04-24 04:42 | -32.20114 | 151.29879 | 25259 ft | 459 kts | 341° |
| 2026-04-24 04:42 | -32.17144 | 151.28636 | 24746 ft | 444 kts | 341° |
| 2026-04-24 04:42 | -32.14311 | 151.27453 | 24483 ft | 436 kts | 341° |
| 2026-04-24 04:43 | -32.11442 | 151.26255 | 23973 ft | 438 kts | 341° |
| 2026-04-24 04:43 | -32.08582 | 151.25061 | 23385 ft | 433 kts | 341° |
| 2026-04-24 04:43 | -32.05758 | 151.23883 | 22826 ft | 429 kts | 341° |
| 2026-04-24 04:43 | -32.02950 | 151.22714 | 22263 ft | 426 kts | 341° |
| 2026-04-24 04:44 | -32.00175 | 151.21558 | 21715 ft | 420 kts | 341° |
| 2026-04-24 04:44 | -31.97427 | 151.20415 | 21154 ft | 417 kts | 341° |
| 2026-04-24 04:44 | -31.94699 | 151.19281 | 20605 ft | 414 kts | 341° |
| 2026-04-24 04:44 | -31.91989 | 151.18154 | 20055 ft | 412 kts | 341° |
| 2026-04-24 04:45 | -31.89293 | 151.17034 | 19502 ft | 409 kts | 341° |
| 2026-04-24 04:45 | -31.86615 | 151.15923 | 18918 ft | 408 kts | 341° |
| 2026-04-24 04:45 | -31.83945 | 151.14815 | 18369 ft | 405 kts | 342° |
| 2026-04-24 04:45 | -31.81303 | 151.13720 | 17811 ft | 401 kts | 341° |
| 2026-04-24 04:46 | -31.78683 | 151.12636 | 17265 ft | 397 kts | 341° |
| 2026-04-24 04:46 | -31.76096 | 151.11564 | 16734 ft | 392 kts | 341° |
| 2026-04-24 04:46 | -31.73567 | 151.10517 | 16202 ft | 389 kts | 341° |
| 2026-04-24 04:46 | -31.71020 | 151.09464 | 15671 ft | 386 kts | 341° |
| 2026-04-24 04:47 | -31.68489 | 151.08419 | 15136 ft | 384 kts | 341° |
| 2026-04-24 04:47 | -31.65981 | 151.07383 | 14626 ft | 381 kts | 341° |
| 2026-04-24 04:47 | -31.63485 | 151.06353 | 14095 ft | 379 kts | 341° |
| 2026-04-24 04:47 | -31.61008 | 151.05330 | 13557 ft | 375 kts | 341° |
| 2026-04-24 04:48 | -31.58556 | 151.04317 | 13049 ft | 372 kts | 341° |
| 2026-04-24 04:48 | -31.56131 | 151.03316 | 12542 ft | 368 kts | 341° |
| 2026-04-24 04:48 | -31.53724 | 151.02324 | 12041 ft | 365 kts | 342° |
| 2026-04-24 04:48 | -31.51342 | 151.01343 | 11540 ft | 362 kts | 342° |
| 2026-04-24 04:49 | -31.48978 | 151.00370 | 11049 ft | 358 kts | 342° |
| 2026-04-24 04:49 | -31.46643 | 150.99409 | 10738 ft | 350 kts | 342° |
| 2026-04-24 04:49 | -31.44393 | 150.98483 | 10596 ft | 336 kts | 342° |
| 2026-04-24 04:49 | -31.42233 | 150.97594 | 10486 ft | 323 kts | 343° |
| 2026-04-24 04:50 | -31.40154 | 150.96740 | 10359 ft | 311 kts | 343° |
| 2026-04-24 04:50 | -31.38159 | 150.95923 | 10004 ft | 307 kts | 343° |
| 2026-04-24 04:50 | -31.36111 | 150.95086 | 9568 ft | 306 kts | 343° |
| 2026-04-24 04:50 | -31.34106 | 150.94265 | 9133 ft | 305 kts | 343° |
| 2026-04-24 04:51 | -31.32113 | 150.93447 | 8755 ft | 302 kts | 342° |
| 2026-04-24 04:51 | -31.30160 | 150.92645 | 8574 ft | 292 kts | 343° |
| 2026-04-24 04:51 | -31.28349 | 150.91632 | 8442 ft | 292 kts | 323° |
| 2026-04-24 04:51 | -31.26883 | 150.89932 | 8339 ft | 302 kts | 313° |
| 2026-04-24 04:52 | -31.25477 | 150.88131 | 8207 ft | 303 kts | 313° |
| 2026-04-24 04:52 | -31.24071 | 150.86317 | 8089 ft | 299 kts | 313° |
| 2026-04-24 04:52 | -31.22679 | 150.84523 | 7974 ft | 297 kts | 313° |
| 2026-04-24 04:52 | -31.21290 | 150.82743 | 7834 ft | 295 kts | 313° |
| 2026-04-24 04:53 | -31.19921 | 150.80995 | 7732 ft | 287 kts | 313° |
| 2026-04-24 04:53 | -31.18600 | 150.79314 | 7611 ft | 276 kts | 313° |
| 2026-04-24 04:53 | -31.17323 | 150.77691 | 7491 ft | 266 kts | 313° |
| 2026-04-24 04:53 | -31.16086 | 150.76120 | 7265 ft | 261 kts | 313° |
| 2026-04-24 04:54 | -31.14859 | 150.74564 | 6979 ft | 260 kts | 313° |
| 2026-04-24 04:54 | -31.13642 | 150.73020 | 6764 ft | 254 kts | 313° |
| 2026-04-24 04:54 | -31.12473 | 150.71533 | 6577 ft | 245 kts | 314° |
| 2026-04-24 04:54 | -31.11326 | 150.70076 | 6119 ft | 244 kts | 313° |
| 2026-04-24 04:55 | -31.10164 | 150.68603 | 5550 ft | 248 kts | 313° |
| 2026-04-24 04:55 | -31.09013 | 150.67143 | 5275 ft | 238 kts | 313° |
| 2026-04-24 04:55 | -31.07923 | 150.65761 | 5182 ft | 225 kts | 313° |
| 2026-04-24 04:55 | -31.06826 | 150.64454 | 4862 ft | 226 kts | 325° |
| 2026-04-24 04:56 | -31.05407 | 150.63747 | 4634 ft | 220 kts | 357° |
| 2026-04-24 04:56 | -31.03952 | 150.63850 | 4495 ft | 203 kts | 14° |
| 2026-04-24 04:56 | -31.02619 | 150.64173 | 4309 ft | 190 kts | 18° |
| 2026-04-24 04:56 | -31.01406 | 150.64573 | 4288 ft | 184 kts | 22° |
| 2026-04-24 04:57 | -31.00206 | 150.65088 | 4276 ft | 177 kts | 27° |
| 2026-04-24 04:57 | -30.99155 | 150.65639 | 4281 ft | 158 kts | 31° |
| 2026-04-24 04:57 | -30.98245 | 150.66201 | 4287 ft | 142 kts | 36° |
| 2026-04-24 04:57 | -30.97417 | 150.66798 | 4287 ft | 140 kts | 40° |
| 2026-04-24 04:58 | -30.96645 | 150.67468 | 4282 ft | 139 kts | 53° |
| 2026-04-24 04:58 | -30.96244 | 150.68448 | 4277 ft | 132 kts | 88° |
| 2026-04-24 04:58 | -30.96390 | 150.69464 | 4138 ft | 127 kts | 118° |
| 2026-04-24 04:58 | -30.96932 | 150.70249 | 3958 ft | 120 kts | 133° |
| 2026-04-24 04:59 | -30.97491 | 150.70963 | 3993 ft | 124 kts | 131° |
| 2026-04-24 04:59 | -30.98081 | 150.71742 | 3937 ft | 130 kts | 130° |
| 2026-04-24 04:59 | -30.98667 | 150.72505 | 3756 ft | 125 kts | 130° |
| 2026-04-24 04:59 | -30.99248 | 150.73262 | 3562 ft | 126 kts | 131° |
| 2026-04-24 05:00 | -30.99823 | 150.74013 | 3471 ft | 124 kts | 132° |
| 2026-04-24 05:00 | -31.00420 | 150.74795 | 3328 ft | 132 kts | 131° |
| 2026-04-24 05:00 | -31.01017 | 150.75581 | 3117 ft | 126 kts | 130° |
| 2026-04-24 05:00 | -31.01587 | 150.76332 | 2883 ft | 123 kts | 130° |
| 2026-04-24 05:01 | -31.02137 | 150.77061 | 2671 ft | 119 kts | 131° |
| 2026-04-24 05:01 | -31.02691 | 150.77800 | 2515 ft | 123 kts | 131° |
| 2026-04-24 05:01 | -31.03260 | 150.78556 | 2339 ft | 122 kts | 131° |
| 2026-04-24 05:01 | -31.03818 | 150.79296 | 2210 ft | 123 kts | 130° |
| 2026-04-24 05:02 | -31.04391 | 150.80050 | 2083 ft | 124 kts | 130° |
| 2026-04-24 05:02 | -31.04955 | 150.80797 | 1923 ft | 125 kts | 130° |
| 2026-04-24 05:02 | -31.05517 | 150.81565 | 1760 ft | 120 kts | 127° |
| 2026-04-24 05:02 | -31.06008 | 150.82301 | 1655 ft | 117 kts | 128° |
| 2026-04-24 05:03 | -31.06564 | 150.83036 | 1499 ft | 120 kts | 133° |
| 2026-04-24 05:03 | -31.07137 | 150.83731 | 1326 ft | 120 kts | 131° |
| 2026-04-24 05:03 | -31.07661 | 150.84390 | 1305 ft | 93 kts | 132° |
| 2026-04-24 05:03 | -31.07907 | 150.84700 | 1310 ft | 29 kts | 132° |
| 2026-04-24 05:04 | -31.08085 | 150.84920 | 1317 ft | 41 kts | 132° |
| 2026-04-24 05:04 | -31.08200 | 150.85059 | 1319 ft | 10 kts | 149° |
| 2026-04-24 05:04 | -31.08282 | 150.85023 | 1321 ft | 17 kts | 220° |
| 2026-04-24 05:04 | -31.08363 | 150.84943 | 1322 ft | 12 kts | 212° |
| 2026-04-24 05:05 | -31.08405 | 150.84910 | 1324 ft | 2 kts | 219° |
| 2026-04-24 05:05 | -31.08410 | 150.84905 | 1323 ft | 0 kts | 219° |